Time;durP1;ratioP1;P1;durP2;ratioP2;P2;SDS_P1;SDS_P2;PMS_P1;PMS_P2;Temp;Humidity;BMP_temperature;BMP_pressure;BME280_temperature;BME280_humidity;BME280_pressure;Samples;Min_cycle;Max_cycle;Signal;HPM_P1;HPM_P2
2021/01/21 00:00:12;;;;;;;220.52;128.40;;;8.00;99.90;;;;;;5071906;28;20421;-72
2021/01/21 00:02:38;;;;;;;204.48;125.47;;;8.00;99.90;;;;;;5072093;28;20052;-74
2021/01/21 00:05:05;;;;;;;205.80;120.95;;;8.00;99.90;;;;;;5071799;28;20013;-74
2021/01/21 00:07:30;;;;;;;209.32;122.15;;;7.90;99.90;;;;;;5071816;28;20024;-75
2021/01/21 00:09:58;;;;;;;202.93;119.60;;;8.00;99.90;;;;;;5071832;28;20021;-74
2021/01/21 00:12:23;;;;;;;198.10;121.85;;;8.00;99.90;;;;;;5072076;28;20029;-74
2021/01/21 00:14:49;;;;;;;198.32;118.25;;;7.90;99.90;;;;;;5071974;28;20036;-74
2021/01/21 00:17:15;;;;;;;202.10;116.50;;;7.90;99.90;;;;;;5072046;28;20016;-75
2021/01/21 00:19:40;;;;;;;192.57;117.65;;;8.00;99.90;;;;;;5071811;28;20021;-74
2021/01/21 00:22:06;;;;;;;199.75;118.93;;;7.90;99.90;;;;;;5071360;28;20021;-74
2021/01/21 00:24:32;;;;;;;195.40;118.80;;;7.90;99.90;;;;;;5070579;28;20021;-74
2021/01/21 00:26:57;;;;;;;211.85;119.95;;;7.80;99.90;;;;;;5071469;28;20500;-75
2021/01/21 00:29:24;;;;;;;206.25;120.78;;;7.90;99.90;;;;;;5071944;28;20415;-74
2021/01/21 00:31:49;;;;;;;207.23;125.03;;;7.80;99.90;;;;;;5071643;28;20451;-74
2021/01/21 00:34:15;;;;;;;217.20;125.63;;;7.90;99.90;;;;;;5071834;28;20025;-74
2021/01/21 00:36:41;;;;;;;204.07;122.47;;;7.90;99.90;;;;;;5070179;28;20055;-74
2021/01/21 00:39:07;;;;;;;208.77;122.80;;;7.90;99.90;;;;;;5071112;28;20104;-74
2021/01/21 00:41:33;;;;;;;209.60;123.45;;;7.80;99.90;;;;;;5071191;28;20032;-74
2021/01/21 00:43:59;;;;;;;200.35;121.65;;;7.80;99.90;;;;;;5070983;28;20025;-75
2021/01/21 00:46:25;;;;;;;193.15;119.93;;;7.90;99.90;;;;;;5070954;28;20017;-74
2021/01/21 00:48:51;;;;;;;204.88;121.32;;;7.90;99.90;;;;;;5071127;28;20029;-74
2021/01/21 00:51:17;;;;;;;198.75;119.20;;;7.80;99.90;;;;;;5070800;28;20021;-75
2021/01/21 00:53:42;;;;;;;205.48;119.20;;;7.80;99.90;;;;;;5070329;28;20027;-74
2021/01/21 00:56:08;;;;;;;205.77;121.35;;;7.80;99.90;;;;;;5071118;28;20024;-74
2021/01/21 00:58:34;;;;;;;196.75;120.60;;;7.80;99.90;;;;;;5070921;28;20092;-74
2021/01/21 01:00:59;;;;;;;193.30;120.53;;;7.80;99.90;;;;;;5070680;28;20051;-74
2021/01/21 01:03:25;;;;;;;211.90;125.20;;;7.70;99.90;;;;;;5070175;28;20466;-75
2021/01/21 01:05:51;;;;;;;193.30;114.45;;;7.70;99.90;;;;;;5070671;28;20035;-74
2021/01/21 01:08:16;;;;;;;196.52;118.03;;;7.70;99.90;;;;;;5070749;28;20357;-74
2021/01/21 01:10:42;;;;;;;201.80;117.95;;;7.80;99.90;;;;;;5070388;28;20029;-74
2021/01/21 01:13:08;;;;;;;196.57;118.55;;;7.80;99.90;;;;;;5070898;28;20032;-74
2021/01/21 01:15:34;;;;;;;201.38;118.53;;;7.80;99.90;;;;;;5070893;28;20017;-74
2021/01/21 01:18:00;;;;;;;200.10;118.20;;;7.80;99.90;;;;;;5071139;28;20468;-74
2021/01/21 01:20:26;;;;;;;187.98;112.32;;;7.70;99.90;;;;;;5072312;28;20021;-74
2021/01/21 01:22:52;;;;;;;183.93;112.03;;;7.70;99.90;;;;;;5074459;28;20027;-74
2021/01/21 01:25:22;;;;;;;192.88;112.97;;;7.70;99.90;;;;;;5074620;28;20039;-74
2021/01/21 01:27:48;;;;;;;194.38;113.50;;;7.70;99.90;;;;;;5074526;28;20039;-74
2021/01/21 01:30:15;;;;;;;189.25;112.75;;;7.70;99.90;;;;;;5074371;28;20399;-74
2021/01/21 01:32:44;;;;;;;191.35;115.43;;;7.70;99.90;;;;;;5074455;28;20067;-74
2021/01/21 01:35:10;;;;;;;192.95;113.40;;;7.70;99.90;;;;;;5074574;28;21124;-74
2021/01/21 01:37:39;;;;;;;188.32;110.22;;;7.60;99.90;;;;;;5073936;28;20024;-74
2021/01/21 01:40:09;;;;;;;186.95;110.88;;;7.60;99.90;;;;;;5072776;28;20032;-75
2021/01/21 01:42:35;;;;;;;187.63;113.63;;;7.60;99.90;;;;;;5074149;28;20025;-74
2021/01/21 01:45:00;;;;;;;193.15;112.18;;;7.40;99.90;;;;;;5074105;28;20028;-74
2021/01/21 01:47:26;;;;;;;180.93;107.18;;;7.40;99.90;;;;;;5074335;28;20519;-74
2021/01/21 01:49:57;;;;;;;189.80;110.95;;;7.40;99.90;;;;;;5073463;28;20055;-74
2021/01/21 01:52:26;;;;;;;180.40;107.38;;;7.40;99.90;;;;;;5073423;28;20051;-74
2021/01/21 01:54:52;;;;;;;179.52;102.45;;;7.40;99.90;;;;;;5074096;28;20016;-74
2021/01/21 01:57:18;;;;;;;169.25;104.65;;;7.40;99.90;;;;;;5074081;28;20060;-74
2021/01/21 01:59:46;;;;;;;192.20;108.25;;;7.40;99.90;;;;;;5073892;28;20032;-73
2021/01/21 02:02:12;;;;;;;186.75;106.90;;;7.40;99.90;;;;;;5073526;28;20110;-74
2021/01/21 02:04:38;;;;;;;192.93;112.28;;;7.40;99.90;;;;;;5073664;28;20465;-74
2021/01/21 02:07:04;;;;;;;189.20;108.43;;;7.40;99.90;;;;;;5059647;28;20028;-75
2021/01/21 02:09:30;;;;;;;185.40;110.97;;;7.40;99.90;;;;;;5073739;28;20036;-74
2021/01/21 02:11:59;;;;;;;184.43;109.05;;;7.40;99.90;;;;;;5073595;28;20035;-74
2021/01/21 02:14:34;;;;;;;188.45;109.78;;;7.30;99.90;;;;;;5073717;28;20045;-74
2021/01/21 02:17:05;;;;;;;204.50;113.57;;;7.30;99.90;;;;;;5073669;28;20473;-74
2021/01/21 02:19:49;;;;;;;188.88;109.55;;;7.30;99.90;;;;;;5073869;28;20028;-74
2021/01/21 02:22:23;;;;;;;193.57;109.35;;;7.40;99.90;;;;;;5073561;28;20052;-74
2021/01/21 02:25:21;;;;;;;191.20;111.85;;;7.40;99.90;;;;;;5074047;28;20092;-74
2021/01/21 02:27:50;;;;;;;191.30;110.00;;;7.40;99.90;;;;;;5062273;28;20028;-74
2021/01/21 02:30:49;;;;;;;197.70;112.43;;;7.50;99.90;;;;;;5073305;28;20511;-74
2021/01/21 02:33:53;;;;;;;192.45;110.22;;;7.50;99.90;;;;;;5073710;28;20033;-75
2021/01/21 02:36:23;;;;;;;192.27;110.68;;;7.50;99.90;;;;;;5073787;28;20411;-74
2021/01/21 02:38:52;;;;;;;192.77;110.18;;;7.60;99.90;;;;;;5071937;28;20032;-74
2021/01/21 02:41:19;;;;;;;185.40;110.45;;;7.60;99.90;;;;;;5073053;28;20016;-74
2021/01/21 02:43:51;;;;;;;183.65;111.13;;;7.60;99.90;;;;;;5073011;28;20495;-74
2021/01/21 02:46:18;;;;;;;187.65;112.88;;;7.70;99.90;;;;;;5069854;28;20384;-74
2021/01/21 02:48:44;;;;;;;189.00;113.50;;;7.70;99.90;;;;;;5072924;28;20024;-74
2021/01/21 02:51:18;;;;;;;189.23;114.38;;;7.70;99.90;;;;;;5071169;28;20020;-74
2021/01/21 02:53:51;;;;;;;176.30;105.97;;;7.70;99.90;;;;;;5072834;28;20416;-74
2021/01/21 02:56:20;;;;;;;191.18;114.32;;;7.70;99.90;;;;;;5072559;28;20396;-75
2021/01/21 02:58:48;;;;;;;180.95;107.25;;;7.70;99.90;;;;;;5072844;28;20032;-74
2021/01/21 03:01:16;;;;;;;180.65;104.68;;;7.70;99.90;;;;;;5072710;28;20062;-74
2021/01/21 03:03:46;;;;;;;180.25;104.10;;;7.80;99.90;;;;;;5071810;28;20072;-74
2021/01/21 03:06:16;;;;;;;179.23;103.68;;;7.80;99.90;;;;;;5072936;28;20037;-74
2021/01/21 03:08:41;;;;;;;185.10;105.70;;;7.80;99.90;;;;;;5072708;28;20070;-75
2021/01/21 03:11:15;;;;;;;171.23;102.82;;;7.80;99.90;;;;;;5072711;28;20610;-75
2021/01/21 03:13:45;;;;;;;174.10;101.20;;;7.80;99.90;;;;;;5072475;28;20033;-74
2021/01/21 03:16:11;;;;;;;176.15;106.00;;;7.80;99.90;;;;;;5058875;28;20024;-75
2021/01/21 03:18:36;;;;;;;164.80;97.95;;;7.80;99.90;;;;;;5072408;28;20020;-74
2021/01/21 03:21:02;;;;;;;170.05;98.10;;;7.80;99.90;;;;;;5072461;28;20013;-75
2021/01/21 03:23:28;;;;;;;153.13;95.90;;;7.80;99.90;;;;;;5072631;28;20388;-75
2021/01/21 03:25:54;;;;;;;157.40;96.13;;;7.90;99.90;;;;;;5072865;28;20021;-74
2021/01/21 03:28:20;;;;;;;165.55;93.47;;;7.90;99.90;;;;;;5084414;28;20035;-75
2021/01/21 03:30:46;;;;;;;163.73;93.15;;;7.90;99.90;;;;;;5072347;28;20055;-74
2021/01/21 03:33:12;;;;;;;162.88;92.72;;;7.90;99.90;;;;;;5072452;28;20060;-74
2021/01/21 03:35:37;;;;;;;154.98;93.03;;;7.90;99.90;;;;;;5072489;28;20016;-75
2021/01/21 03:38:03;;;;;;;161.70;91.78;;;7.90;99.90;;;;;;5072130;28;20035;-74
2021/01/21 03:40:29;;;;;;;153.10;93.63;;;8.00;99.90;;;;;;5072345;28;20031;-75
2021/01/21 03:42:54;;;;;;;150.65;90.82;;;7.90;99.90;;;;;;5071576;28;20005;-75
2021/01/21 03:45:20;;;;;;;161.05;91.60;;;7.90;99.90;;;;;;5072315;28;20048;-74
2021/01/21 03:47:46;;;;;;;146.85;87.90;;;7.90;99.90;;;;;;5072278;28;20354;-73
2021/01/21 03:50:12;;;;;;;145.02;86.55;;;7.90;99.90;;;;;;5058234;28;20016;-74
2021/01/21 03:52:38;;;;;;;141.30;87.50;;;7.90;99.90;;;;;;5071781;28;20032;-73
2021/01/21 03:55:04;;;;;;;147.70;88.68;;;7.90;99.90;;;;;;5071940;28;20488;-75
2021/01/21 03:57:29;;;;;;;154.43;90.75;;;7.90;99.90;;;;;;5072102;28;20082;-75
2021/01/21 03:59:55;;;;;;;148.52;88.30;;;7.90;99.90;;;;;;5071591;28;20496;-74
2021/01/21 04:02:21;;;;;;;160.50;94.45;;;7.90;99.90;;;;;;5071282;28;20451;-75
2021/01/21 04:04:47;;;;;;;165.10;99.45;;;7.90;99.90;;;;;;5070502;28;20048;-74
2021/01/21 04:07:12;;;;;;;172.90;98.75;;;8.00;99.90;;;;;;5071517;28;20025;-73
2021/01/21 04:09:38;;;;;;;167.15;98.45;;;7.90;99.90;;;;;;5071638;28;20029;-74
2021/01/21 04:12:04;;;;;;;159.35;96.65;;;8.00;99.90;;;;;;5071508;28;20175;-74
2021/01/21 04:14:30;;;;;;;161.32;95.25;;;8.00;99.90;;;;;;5071156;28;20094;-74
2021/01/21 04:16:56;;;;;;;162.77;97.85;;;8.00;99.90;;;;;;5069142;28;20021;-74
2021/01/21 04:19:21;;;;;;;158.07;94.80;;;8.00;99.90;;;;;;5070981;28;20013;-75
2021/01/21 04:21:47;;;;;;;162.40;92.38;;;8.00;99.90;;;;;;5071023;28;20099;-75
2021/01/21 04:24:13;;;;;;;142.45;86.70;;;8.00;99.90;;;;;;5071269;28;20012;-75
2021/01/21 04:26:39;;;;;;;144.30;86.75;;;8.00;99.90;;;;;;5071575;28;20064;-74
2021/01/21 04:29:04;;;;;;;145.07;87.70;;;8.00;99.90;;;;;;5071641;28;20467;-75
2021/01/21 04:31:30;;;;;;;132.88;83.32;;;8.00;99.90;;;;;;5071442;28;20423;-74
2021/01/21 04:33:56;;;;;;;135.57;85.50;;;8.00;99.90;;;;;;5071129;28;20040;-75
2021/01/21 04:36:21;;;;;;;139.05;86.20;;;8.00;99.90;;;;;;5070920;28;20048;-75
2021/01/21 04:38:47;;;;;;;145.25;87.30;;;7.90;99.90;;;;;;5071239;28;20031;-74
2021/01/21 04:41:14;;;;;;;147.10;89.15;;;7.90;99.90;;;;;;5070896;28;20045;-75
2021/01/21 04:43:40;;;;;;;143.98;88.28;;;7.90;99.90;;;;;;5071403;28;20477;-73
2021/01/21 04:46:11;;;;;;;149.27;88.50;;;7.90;99.90;;;;;;5070971;28;20045;-73
2021/01/21 04:48:39;;;;;;;148.98;89.22;;;7.90;99.90;;;;;;5071259;28;20039;-74
2021/01/21 04:51:05;;;;;;;157.75;89.85;;;7.90;99.90;;;;;;5070915;28;20078;-74
2021/01/21 04:53:33;;;;;;;144.02;87.95;;;7.90;99.90;;;;;;5070271;28;20059;-74
2021/01/21 04:56:01;;;;;;;145.98;85.30;;;7.80;99.90;;;;;;5075333;28;20035;-74
2021/01/21 04:58:31;;;;;;;153.35;92.78;;;7.80;99.90;;;;;;5075059;28;20025;-75
2021/01/21 05:00:59;;;;;;;152.68;86.90;;;7.80;99.90;;;;;;5074922;28;20028;-75
2021/01/21 05:03:25;;;;;;;155.73;91.60;;;7.80;99.90;;;;;;5074749;28;20075;-75
2021/01/21 05:05:51;;;;;;;158.82;92.20;;;7.80;99.90;;;;;;5075205;28;20059;-74
2021/01/21 05:08:18;;;;;;;157.48;91.10;;;7.70;99.90;;;;;;5075157;28;20364;-75
2021/01/21 05:10:45;;;;;;;154.25;92.90;;;7.70;99.90;;;;;;5060717;28;20024;-75
2021/01/21 05:13:11;;;;;;;144.15;89.38;;;7.70;99.90;;;;;;5074289;28;20142;-75
2021/01/21 05:15:36;;;;;;;157.10;91.97;;;7.70;99.90;;;;;;5074813;28;20020;-75
2021/01/21 05:18:04;;;;;;;165.55;94.10;;;7.80;99.90;;;;;;5074749;28;20021;-75
2021/01/21 05:20:35;;;;;;;164.63;90.90;;;7.80;99.90;;;;;;5074559;28;20063;-74
2021/01/21 05:23:04;;;;;;;151.38;87.75;;;7.80;99.90;;;;;;5074558;28;20436;-74
2021/01/21 05:25:30;;;;;;;147.82;90.30;;;7.80;99.90;;;;;;5074397;28;20032;-74
2021/01/21 05:28:06;;;;;;;148.25;88.25;;;7.80;99.90;;;;;;5073091;28;20361;-73
2021/01/21 05:30:33;;;;;;;158.50;89.32;;;7.90;99.90;;;;;;5074119;28;20486;-73
2021/01/21 05:33:00;;;;;;;153.55;88.55;;;7.90;99.90;;;;;;5074436;28;20368;-73
2021/01/21 05:35:26;;;;;;;156.52;88.15;;;8.00;99.90;;;;;;5074454;28;20170;-73
2021/01/21 05:37:56;;;;;;;156.40;91.40;;;8.00;99.90;;;;;;5074431;28;20016;-73
2021/01/21 05:40:27;;;;;;;158.80;89.82;;;8.00;99.90;;;;;;5073711;28;20477;-73
2021/01/21 05:42:54;;;;;;;152.73;87.63;;;8.00;99.90;;;;;;5074110;28;20020;-73
2021/01/21 05:45:21;;;;;;;149.52;86.72;;;8.00;99.90;;;;;;5073938;28;20029;-74
2021/01/21 05:47:57;;;;;;;149.98;84.45;;;8.00;99.90;;;;;;5073755;28;20028;-73
2021/01/21 05:50:24;;;;;;;153.05;85.72;;;8.00;99.90;;;;;;5073983;28;20020;-73
2021/01/21 05:52:51;;;;;;;152.45;86.70;;;8.10;99.90;;;;;;5073670;28;20032;-73
2021/01/21 05:55:20;;;;;;;157.90;88.65;;;8.10;99.90;;;;;;5074239;28;20158;-73
2021/01/21 05:57:47;;;;;;;142.40;83.00;;;8.10;99.90;;;;;;5074092;28;20028;-73
2021/01/21 06:00:16;;;;;;;146.18;84.35;;;8.10;99.90;;;;;;5073591;28;20031;-76
2021/01/21 06:02:49;;;;;;;144.27;85.30;;;8.10;99.90;;;;;;5073530;28;20044;-74
2021/01/21 06:05:20;;;;;;;143.90;81.47;;;8.10;99.90;;;;;;5073033;28;20017;-74
2021/01/21 06:07:47;;;;;;;147.15;84.55;;;8.10;99.90;;;;;;5073553;28;20036;-75
2021/01/21 06:10:15;;;;;;;140.20;83.07;;;8.10;99.90;;;;;;5073144;28;20107;-74
2021/01/21 06:12:45;;;;;;;135.57;79.72;;;8.20;99.90;;;;;;5073306;28;20036;-74
2021/01/21 06:15:14;;;;;;;141.43;80.57;;;8.20;99.90;;;;;;5073561;28;20024;-75
2021/01/21 06:17:41;;;;;;;149.65;79.45;;;8.30;99.90;;;;;;5073515;28;20021;-73
2021/01/21 06:20:07;;;;;;;137.23;81.60;;;8.20;99.90;;;;;;5073760;28;20031;-72
2021/01/21 06:22:34;;;;;;;142.68;82.80;;;8.30;99.90;;;;;;5072891;28;20099;-74
2021/01/21 06:25:04;;;;;;;132.02;79.72;;;8.30;99.90;;;;;;5073567;28;20449;-72
2021/01/21 06:27:33;;;;;;;140.43;79.93;;;8.30;99.90;;;;;;5072182;28;20510;-72
2021/01/21 06:30:00;;;;;;;134.23;79.65;;;8.30;99.90;;;;;;5065859;28;20029;-72
2021/01/21 06:32:34;;;;;;;127.50;76.75;;;8.30;99.90;;;;;;5072510;28;20067;-72
2021/01/21 06:35:04;;;;;;;127.05;77.60;;;8.30;99.90;;;;;;5071494;28;20032;-73
2021/01/21 06:37:33;;;;;;;125.63;76.30;;;8.40;99.90;;;;;;5072235;28;20502;-73
2021/01/21 06:40:10;;;;;;;146.70;83.65;;;8.40;99.90;;;;;;5073183;28;20032;-73
2021/01/21 06:42:37;;;;;;;121.63;76.13;;;8.40;99.90;;;;;;5073111;28;20025;-72
2021/01/21 06:45:07;;;;;;;122.88;74.00;;;8.40;99.90;;;;;;5072797;28;20384;-73
2021/01/21 06:47:35;;;;;;;124.28;75.47;;;8.40;99.90;;;;;;5073496;28;20070;-73
2021/01/21 06:50:03;;;;;;;122.22;73.80;;;8.40;99.90;;;;;;5073522;28;20069;-72
2021/01/21 06:52:31;;;;;;;127.70;74.70;;;8.40;99.90;;;;;;5071422;28;20085;-74
2021/01/21 06:55:02;;;;;;;121.72;71.68;;;8.40;99.90;;;;;;5067911;28;20020;-72
2021/01/21 06:57:33;;;;;;;128.18;72.93;;;8.40;99.90;;;;;;5071345;28;20061;-73
2021/01/21 07:00:07;;;;;;;128.77;78.75;;;8.40;99.90;;;;;;5069901;28;20021;-73
2021/01/21 07:02:46;;;;;;;113.85;69.90;;;8.40;99.90;;;;;;5072391;28;20041;-73
2021/01/21 07:05:19;;;;;;;112.68;67.80;;;8.40;99.90;;;;;;5072535;28;20029;-73
2021/01/21 07:07:58;;;;;;;116.72;68.65;;;8.50;99.90;;;;;;5072233;28;20419;-73
2021/01/21 07:10:34;;;;;;;108.75;65.43;;;8.50;99.90;;;;;;5072848;28;20024;-74
2021/01/21 07:13:12;;;;;;;118.13;68.70;;;8.50;99.90;;;;;;5072331;28;20052;-73
2021/01/21 07:16:03;;;;;;;117.05;74.18;;;8.50;99.90;;;;;;5072564;28;20435;-73
2021/01/21 07:18:37;;;;;;;122.53;74.13;;;8.50;99.90;;;;;;5065028;28;20020;-73
2021/01/21 07:21:07;;;;;;;122.93;75.22;;;8.50;99.90;;;;;;5065991;28;20362;-73
2021/01/21 07:23:51;;;;;;;131.10;74.95;;;8.50;99.90;;;;;;5066329;28;20019;-74
2021/01/21 07:26:42;;;;;;;120.20;72.93;;;8.50;99.90;;;;;;5072168;28;20408;-74
2021/01/21 07:29:17;;;;;;;128.88;74.90;;;8.50;99.90;;;;;;5072740;28;20069;-74
2021/01/21 07:31:51;;;;;;;126.15;74.28;;;8.50;99.90;;;;;;5072165;28;20031;-74
2021/01/21 07:34:37;;;;;;;130.57;78.13;;;8.50;99.90;;;;;;5072237;28;20081;-75
2021/01/21 07:37:19;;;;;;;131.00;80.22;;;8.60;99.90;;;;;;5072409;28;20020;-74
2021/01/21 07:39:54;;;;;;;129.68;80.20;;;8.60;99.90;;;;;;5072104;28;20052;-74
2021/01/21 07:42:22;;;;;;;140.43;80.50;;;8.60;99.90;;;;;;5070738;28;20078;-75
2021/01/21 07:44:55;;;;;;;139.40;81.10;;;8.60;99.90;;;;;;5072701;28;20032;-72
2021/01/21 07:47:28;;;;;;;137.52;78.85;;;8.60;99.90;;;;;;5064138;28;20017;-72
2021/01/21 07:50:22;;;;;;;142.40;76.05;;;8.60;99.90;;;;;;5058051;28;20473;-72
2021/01/21 07:52:50;;;;;;;125.45;75.40;;;8.60;99.90;;;;;;5062590;28;20510;-73
2021/01/21 07:55:26;;;;;;;121.22;74.57;;;8.60;99.90;;;;;;5061880;28;20039;-73
2021/01/21 07:57:52;;;;;;;112.82;72.70;;;8.60;99.90;;;;;;5061146;28;20067;-73
2021/01/21 08:00:18;;;;;;;131.73;73.97;;;8.70;99.90;;;;;;5061458;28;20062;-73
2021/01/21 08:02:49;;;;;;;123.07;75.20;;;8.70;99.90;;;;;;5064105;28;20040;-73
2021/01/21 08:05:20;;;;;;;128.63;73.73;;;8.70;99.90;;;;;;5064799;28;20027;-73
2021/01/21 08:07:50;;;;;;;124.95;77.45;;;8.70;99.90;;;;;;5063341;28;20675;-72
2021/01/21 08:10:29;;;;;;;122.20;73.85;;;8.70;99.90;;;;;;5065051;28;20035;-73
2021/01/21 08:12:58;;;;;;;124.78;75.75;;;8.80;99.90;;;;;;5063126;28;20082;-74
2021/01/21 08:15:25;;;;;;;119.15;72.97;;;8.80;99.90;;;;;;5061265;28;20021;-73
2021/01/21 08:17:52;;;;;;;130.50;73.18;;;8.90;99.90;;;;;;5059301;28;20389;-73
2021/01/21 08:20:19;;;;;;;118.78;72.25;;;8.90;99.90;;;;;;5056549;28;20491;-73
2021/01/21 08:22:54;;;;;;;124.85;73.25;;;9.00;99.90;;;;;;5076135;28;20041;-73
2021/01/21 08:25:21;;;;;;;124.57;75.75;;;9.00;99.90;;;;;;5067527;28;20404;-73
2021/01/21 08:27:48;;;;;;;126.45;73.18;;;9.10;99.90;;;;;;5061349;28;20028;-72
2021/01/21 08:30:15;;;;;;;128.68;76.05;;;9.10;99.90;;;;;;5054276;28;20515;-73
2021/01/21 08:32:43;;;;;;;126.05;75.35;;;9.10;99.90;;;;;;5060482;28;20045;-73
2021/01/21 08:35:13;;;;;;;129.85;76.18;;;9.20;99.90;;;;;;5061120;28;20025;-74
2021/01/21 08:37:39;;;;;;;121.32;76.63;;;9.20;99.90;;;;;;5059236;28;20028;-73
2021/01/21 08:40:07;;;;;;;128.57;75.45;;;9.20;99.90;;;;;;5060040;28;20015;-73
2021/01/21 08:42:33;;;;;;;172.65;107.60;;;9.20;99.90;;;;;;5058678;28;20044;-73
2021/01/21 08:45:00;;;;;;;136.48;81.88;;;9.20;99.90;;;;;;5061705;28;20029;-73
2021/01/21 08:47:38;;;;;;;144.13;89.55;;;9.30;99.90;;;;;;5059639;28;20033;-73
2021/01/21 08:50:05;;;;;;;133.38;82.32;;;9.30;99.90;;;;;;5061190;28;20029;-73
2021/01/21 08:52:31;;;;;;;140.18;86.78;;;9.30;99.90;;;;;;5056583;28;20037;-73
2021/01/21 08:54:56;;;;;;;139.02;84.47;;;9.30;99.90;;;;;;5061481;28;20484;-73
2021/01/21 08:57:23;;;;;;;153.45;92.70;;;9.30;99.90;;;;;;5059757;28;20388;-72
2021/01/21 08:59:49;;;;;;;135.68;81.88;;;9.30;99.90;;;;;;5061708;28;20052;-72
2021/01/21 09:02:41;;;;;;;129.38;78.40;;;9.30;99.90;;;;;;5059994;28;20111;-73
2021/01/21 09:05:07;;;;;;;;;;;9.20;99.90;;;;;;5062436;28;20099;-73
2021/01/21 09:07:33;;;;;;;129.93;72.00;;;9.20;99.90;;;;;;5055474;28;20349;-73
2021/01/21 09:10:09;;;;;;;127.75;75.43;;;9.20;99.90;;;;;;5058546;28;20021;-73
2021/01/21 09:12:35;;;;;;;128.95;73.22;;;9.20;99.90;;;;;;5054891;28;20133;-72
2021/01/21 09:15:05;;;;;;;123.90;72.22;;;9.20;99.90;;;;;;5060456;28;20068;-72
2021/01/21 09:17:32;;;;;;;116.03;71.57;;;9.20;99.90;;;;;;5059976;28;20639;-72
2021/01/21 09:19:58;;;;;;;117.80;72.55;;;9.20;99.90;;;;;;5060233;28;20052;-72
2021/01/21 09:22:27;;;;;;;121.57;72.30;;;9.30;99.90;;;;;;5059726;28;20071;-72
2021/01/21 09:25:01;;;;;;;117.95;70.55;;;9.30;99.90;;;;;;5060318;28;20025;-72
2021/01/21 09:27:29;;;;;;;116.38;68.10;;;9.30;99.90;;;;;;5065787;28;20052;-73
2021/01/21 09:29:56;;;;;;;126.88;69.90;;;9.40;99.90;;;;;;5071043;28;20017;-72
2021/01/21 09:32:33;;;;;;;128.88;68.07;;;9.40;99.90;;;;;;5059622;28;20124;-73
2021/01/21 09:35:22;;;;;;;120.22;72.03;;;9.50;99.90;;;;;;5056958;28;20033;-75
2021/01/21 09:37:50;;;;;;;117.38;69.32;;;9.50;99.90;;;;;;5070992;28;20081;-75
2021/01/21 09:40:22;;;;;;;109.63;67.60;;;9.50;99.90;;;;;;5059496;28;20377;-73
2021/01/21 09:42:48;;;;;;;;;;;9.60;99.90;;;;;;5064104;28;20066;-74
2021/01/21 09:45:14;;;;;;;117.55;62.00;;;9.70;99.90;;;;;;5066724;28;19986;-75
2021/01/21 09:47:41;;;;;;;107.30;64.70;;;9.70;99.90;;;;;;5063673;28;20093;-73
2021/01/21 09:50:08;;;;;;;116.72;68.43;;;9.70;99.90;;;;;;5063540;28;20025;-75
2021/01/21 09:52:34;;;;;;;122.78;68.10;;;9.80;99.90;;;;;;5065094;28;20412;-76
2021/01/21 09:55:00;;;;;;;108.90;66.65;;;9.80;99.90;;;;;;5063894;28;20100;-73
2021/01/21 09:57:27;;;;;;;107.30;66.20;;;9.80;99.90;;;;;;5063624;28;20066;-71
2021/01/21 09:59:52;;;;;;;115.18;74.47;;;9.90;99.90;;;;;;5065123;28;20023;-72
2021/01/21 10:02:18;;;;;;;150.40;82.45;;;9.90;99.90;;;;;;5062003;28;20401;-73
2021/01/21 10:04:44;;;;;;;146.43;83.43;;;9.90;99.90;;;;;;5064214;28;20025;-75
2021/01/21 10:07:10;;;;;;;143.40;80.03;;;10.00;99.90;;;;;;5062574;28;20029;-71
2021/01/21 10:09:36;;;;;;;120.28;72.90;;;10.00;99.90;;;;;;5059127;28;20108;-72
2021/01/21 10:12:03;;;;;;;134.82;72.32;;;10.00;99.90;;;;;;5053743;28;20104;-72
2021/01/21 10:14:28;;;;;;;122.70;70.47;;;10.10;99.90;;;;;;5056939;28;20104;-71
2021/01/21 10:16:55;;;;;;;116.10;69.50;;;10.10;99.90;;;;;;5062985;28;20096;-72
2021/01/21 10:19:20;;;;;;;121.03;72.40;;;10.10;99.90;;;;;;5071576;28;20027;-71
2021/01/21 10:21:46;;;;;;;150.98;84.15;;;10.20;99.90;;;;;;5068674;28;20029;-72
2021/01/21 10:24:12;;;;;;;149.65;77.75;;;10.20;99.90;;;;;;5064656;28;20492;-71
2021/01/21 10:26:38;;;;;;;153.73;80.38;;;10.20;99.90;;;;;;5064014;28;20397;-72
2021/01/21 10:29:04;;;;;;;158.27;84.50;;;10.30;99.90;;;;;;5068445;28;20520;-74
2021/01/21 10:31:30;;;;;;;156.15;82.35;;;10.30;99.90;;;;;;5066948;28;20163;-76
2021/01/21 10:33:55;;;;;;;147.75;79.30;;;10.30;99.90;;;;;;5064070;28;20027;-75
2021/01/21 10:36:21;;;;;;;126.82;72.57;;;10.20;99.90;;;;;;5061829;28;20019;-73
2021/01/21 10:38:47;;;;;;;119.80;74.95;;;10.20;99.90;;;;;;5061169;28;20430;-77
2021/01/21 10:41:12;;;;;;;129.27;73.47;;;10.20;99.90;;;;;;5058448;28;20355;-72
2021/01/21 10:43:38;;;;;;;121.05;71.00;;;10.20;99.90;;;;;;5058953;28;20023;-73
2021/01/21 10:46:04;;;;;;;115.18;66.82;;;10.20;99.90;;;;;;5061186;28;20025;-76
2021/01/21 10:48:30;;;;;;;112.57;71.30;;;10.20;99.90;;;;;;5060905;28;20033;-76
2021/01/21 10:50:56;;;;;;;122.45;70.68;;;10.20;99.90;;;;;;5057798;28;20057;-72
2021/01/21 10:53:22;;;;;;;123.88;70.22;;;10.30;99.90;;;;;;5056827;28;20067;-77
2021/01/21 10:55:47;;;;;;;119.20;68.93;;;10.30;99.90;;;;;;5064764;28;20025;-72
2021/01/21 10:58:14;;;;;;;118.53;68.80;;;10.30;99.90;;;;;;5064298;28;20136;-72
2021/01/21 11:00:40;;;;;;;120.95;66.72;;;10.30;99.90;;;;;;5060310;28;20028;-72
2021/01/21 11:03:06;;;;;;;105.93;63.60;;;10.30;99.90;;;;;;5059825;28;20574;-72
2021/01/21 11:05:31;;;;;;;112.15;59.78;;;10.30;99.90;;;;;;5060261;28;20017;-72
2021/01/21 11:07:57;;;;;;;121.45;61.47;;;10.30;99.90;;;;;;5062563;28;20537;-70
2021/01/21 11:10:23;;;;;;;100.72;59.13;;;10.30;99.90;;;;;;5063042;28;20016;-71
2021/01/21 11:12:49;;;;;;;104.75;61.28;;;10.30;99.90;;;;;;5060258;28;20547;-71
2021/01/21 11:15:18;;;;;;;119.97;66.63;;;10.40;99.90;;;;;;5055531;28;20474;-71
2021/01/21 11:17:45;;;;;;;120.47;75.25;;;10.40;99.90;;;;;;5061056;28;20029;-71
2021/01/21 11:20:13;;;;;;;149.77;89.20;;;10.30;99.90;;;;;;5064335;28;20031;-71
2021/01/21 11:22:39;;;;;;;141.52;86.75;;;10.30;99.90;;;;;;5061441;28;20020;-72
2021/01/21 11:25:08;;;;;;;117.65;70.72;;;10.30;99.90;;;;;;5064448;28;20052;-71
2021/01/21 11:27:38;;;;;;;113.32;67.82;;;10.30;99.90;;;;;;5061704;28;20032;-72
2021/01/21 11:30:11;;;;;;;105.10;63.70;;;10.30;99.90;;;;;;5061894;28;20032;-71
2021/01/21 11:32:37;;;;;;;111.35;65.57;;;10.30;99.90;;;;;;5066697;28;20128;-71
2021/01/21 11:35:04;;;;;;;115.45;64.45;;;10.30;99.90;;;;;;5066830;28;20150;-71
2021/01/21 11:37:30;;;;;;;107.50;67.97;;;10.30;99.90;;;;;;5056578;28;20025;-71
2021/01/21 11:39:56;;;;;;;134.10;76.93;;;10.30;99.90;;;;;;5061852;28;20107;-72
2021/01/21 11:42:22;;;;;;;120.97;74.00;;;10.30;99.90;;;;;;5065339;28;20016;-71
2021/01/21 11:44:48;;;;;;;128.60;75.38;;;10.30;99.90;;;;;;5058899;28;20456;-72
2021/01/21 11:47:15;;;;;;;126.40;70.97;;;10.30;99.90;;;;;;5062004;28;20027;-72
2021/01/21 11:49:41;;;;;;;123.22;72.43;;;10.30;99.90;;;;;;5057071;28;20075;-71
2021/01/21 11:52:07;;;;;;;122.57;74.32;;;10.30;99.90;;;;;;5071250;28;20031;-72
2021/01/21 11:54:33;;;;;;;127.72;75.55;;;10.30;99.90;;;;;;5058403;28;20534;-72
2021/01/21 11:56:59;;;;;;;121.10;75.30;;;10.20;99.90;;;;;;5055607;28;20051;-72
2021/01/21 11:59:24;;;;;;;130.63;75.80;;;10.20;99.90;;;;;;5054507;28;20040;-72
2021/01/21 12:01:50;;;;;;;125.35;75.57;;;10.30;99.90;;;;;;5066913;28;20674;-74
2021/01/21 12:04:16;;;;;;;129.35;77.78;;;10.20;99.90;;;;;;5059772;28;20041;-75
2021/01/21 12:06:41;;;;;;;137.27;75.80;;;10.30;99.90;;;;;;5063192;28;20033;-72
2021/01/21 12:09:07;;;;;;;134.80;79.45;;;10.20;99.90;;;;;;5060115;28;20518;-72
2021/01/21 12:11:33;;;;;;;138.45;77.60;;;10.20;99.90;;;;;;5059534;28;20091;-71
2021/01/21 12:14:00;;;;;;;126.00;79.35;;;10.30;99.90;;;;;;5064360;28;20024;-71
2021/01/21 12:16:26;;;;;;;140.23;81.65;;;10.30;99.90;;;;;;5061138;28;20025;-71
2021/01/21 12:18:52;;;;;;;157.80;84.38;;;10.30;99.90;;;;;;5062104;28;20495;-71
2021/01/21 12:21:18;;;;;;;146.00;87.90;;;10.30;99.90;;;;;;5064258;28;20028;-71
2021/01/21 12:23:44;;;;;;;152.88;90.68;;;10.30;99.90;;;;;;5069198;28;20024;-71
2021/01/21 12:26:10;;;;;;;158.13;90.43;;;10.40;99.90;;;;;;5060390;28;20032;-71
2021/01/21 12:28:36;;;;;;;140.32;86.57;;;10.40;99.90;;;;;;5067472;28;20029;-71